sensor_id;sensor_type;location;lat;lon;timestamp;P1;durP1;ratioP1;P2;durP2;ratioP2
8104;SDS011;4095;48.942;9.104;2024-03-08T00:01:08;25.37;;;17.37;;
8104;SDS011;4095;48.942;9.104;2024-03-08T00:03:34;24.57;;;17.23;;
8104;SDS011;4095;48.942;9.104;2024-03-08T00:06:00;20.90;;;16.63;;
8104;SDS011;4095;48.942;9.104;2024-03-08T00:08:25;20.17;;;16.63;;
8104;SDS011;4095;48.942;9.104;2024-03-08T00:10:51;21.17;;;17.10;;
8104;SDS011;4095;48.942;9.104;2024-03-08T00:13:16;20.87;;;17.40;;
8104;SDS011;4095;48.942;9.104;2024-03-08T00:15:42;22.67;;;16.37;;
8104;SDS011;4095;48.942;9.104;2024-03-08T00:18:07;19.90;;;16.00;;
8104;SDS011;4095;48.942;9.104;2024-03-08T00:20:33;20.13;;;16.20;;
8104;SDS011;4095;48.942;9.104;2024-03-08T00:22:58;20.50;;;16.67;;
8104;SDS011;4095;48.942;9.104;2024-03-08T00:25:24;22.23;;;17.47;;
8104;SDS011;4095;48.942;9.104;2024-03-08T00:27:50;22.07;;;17.43;;
8104;SDS011;4095;48.942;9.104;2024-03-08T00:30:16;22.13;;;16.73;;
8104;SDS011;4095;48.942;9.104;2024-03-08T00:32:41;20.63;;;16.77;;
8104;SDS011;4095;48.942;9.104;2024-03-08T00:35:07;22.27;;;17.23;;
8104;SDS011;4095;48.942;9.104;2024-03-08T00:37:33;20.77;;;15.80;;
8104;SDS011;4095;48.942;9.104;2024-03-08T00:39:59;20.37;;;16.70;;
8104;SDS011;4095;48.942;9.104;2024-03-08T00:42:25;22.00;;;17.13;;
8104;SDS011;4095;48.942;9.104;2024-03-08T00:44:50;21.60;;;16.63;;
8104;SDS011;4095;48.942;9.104;2024-03-08T00:47:16;20.93;;;16.23;;
8104;SDS011;4095;48.942;9.104;2024-03-08T00:49:42;20.83;;;16.53;;
8104;SDS011;4095;48.942;9.104;2024-03-08T00:52:07;23.33;;;16.87;;
8104;SDS011;4095;48.942;9.104;2024-03-08T00:54:34;20.57;;;16.80;;
8104;SDS011;4095;48.942;9.104;2024-03-08T00:57:03;21.50;;;16.77;;
8104;SDS011;4095;48.942;9.104;2024-03-08T00:59:29;21.80;;;17.13;;
8104;SDS011;4095;48.942;9.104;2024-03-08T01:01:57;22.07;;;17.60;;
8104;SDS011;4095;48.942;9.104;2024-03-08T01:04:26;21.60;;;16.33;;
8104;SDS011;4095;48.942;9.104;2024-03-08T01:06:55;21.50;;;17.37;;
8104;SDS011;4095;48.942;9.104;2024-03-08T01:09:22;23.67;;;17.13;;
8104;SDS011;4095;48.942;9.104;2024-03-08T01:11:48;21.17;;;17.73;;
8104;SDS011;4095;48.942;9.104;2024-03-08T01:14:14;23.87;;;18.30;;
8104;SDS011;4095;48.942;9.104;2024-03-08T01:16:40;22.63;;;17.43;;
8104;SDS011;4095;48.942;9.104;2024-03-08T01:19:06;20.20;;;16.10;;
8104;SDS011;4095;48.942;9.104;2024-03-08T01:21:31;23.33;;;16.47;;
8104;SDS011;4095;48.942;9.104;2024-03-08T01:23:57;21.50;;;16.90;;
8104;SDS011;4095;48.942;9.104;2024-03-08T01:26:22;20.63;;;15.77;;
8104;SDS011;4095;48.942;9.104;2024-03-08T01:28:49;22.43;;;17.90;;
8104;SDS011;4095;48.942;9.104;2024-03-08T01:31:14;20.67;;;16.77;;
8104;SDS011;4095;48.942;9.104;2024-03-08T01:33:40;23.70;;;18.50;;
8104;SDS011;4095;48.942;9.104;2024-03-08T01:36:07;24.30;;;17.80;;
8104;SDS011;4095;48.942;9.104;2024-03-08T01:38:33;21.57;;;17.83;;
8104;SDS011;4095;48.942;9.104;2024-03-08T01:40:58;21.73;;;17.10;;
8104;SDS011;4095;48.942;9.104;2024-03-08T01:43:28;20.77;;;17.20;;
8104;SDS011;4095;48.942;9.104;2024-03-08T01:46:00;20.03;;;15.87;;
8104;SDS011;4095;48.942;9.104;2024-03-08T01:48:29;21.00;;;16.80;;
8104;SDS011;4095;48.942;9.104;2024-03-08T01:50:56;22.30;;;17.63;;
8104;SDS011;4095;48.942;9.104;2024-03-08T01:53:23;22.73;;;17.77;;
8104;SDS011;4095;48.942;9.104;2024-03-08T01:55:52;22.93;;;17.23;;
8104;SDS011;4095;48.942;9.104;2024-03-08T01:58:21;21.93;;;16.17;;
8104;SDS011;4095;48.942;9.104;2024-03-08T02:00:48;22.20;;;17.40;;
8104;SDS011;4095;48.942;9.104;2024-03-08T02:03:16;22.47;;;17.87;;
8104;SDS011;4095;48.942;9.104;2024-03-08T02:05:42;21.90;;;16.97;;
8104;SDS011;4095;48.942;9.104;2024-03-08T02:08:08;24.10;;;17.17;;
8104;SDS011;4095;48.942;9.104;2024-03-08T02:10:38;22.23;;;16.97;;
8104;SDS011;4095;48.942;9.104;2024-03-08T02:13:03;23.17;;;18.70;;
8104;SDS011;4095;48.942;9.104;2024-03-08T02:18:21;23.20;;;16.97;;
8104;SDS011;4095;48.942;9.104;2024-03-08T02:21:06;23.23;;;17.97;;
8104;SDS011;4095;48.942;9.104;2024-03-08T02:23:33;21.37;;;16.80;;
8104;SDS011;4095;48.942;9.104;2024-03-08T02:25:59;22.63;;;16.87;;
8104;SDS011;4095;48.942;9.104;2024-03-08T02:28:25;21.00;;;16.83;;
8104;SDS011;4095;48.942;9.104;2024-03-08T02:30:51;22.13;;;17.33;;
8104;SDS011;4095;48.942;9.104;2024-03-08T02:33:20;20.93;;;17.07;;
8104;SDS011;4095;48.942;9.104;2024-03-08T02:35:47;23.17;;;16.80;;
8104;SDS011;4095;48.942;9.104;2024-03-08T02:38:14;22.00;;;16.93;;
8104;SDS011;4095;48.942;9.104;2024-03-08T02:40:41;22.07;;;16.17;;
8104;SDS011;4095;48.942;9.104;2024-03-08T02:43:11;24.17;;;17.93;;
8104;SDS011;4095;48.942;9.104;2024-03-08T02:45:37;23.03;;;18.27;;
8104;SDS011;4095;48.942;9.104;2024-03-08T02:48:04;24.13;;;17.93;;
8104;SDS011;4095;48.942;9.104;2024-03-08T02:50:33;22.90;;;17.43;;
8104;SDS011;4095;48.942;9.104;2024-03-08T02:53:00;23.17;;;17.07;;
8104;SDS011;4095;48.942;9.104;2024-03-08T02:55:26;20.70;;;16.40;;
8104;SDS011;4095;48.942;9.104;2024-03-08T02:57:51;22.07;;;17.93;;
8104;SDS011;4095;48.942;9.104;2024-03-08T03:00:19;20.93;;;16.87;;
8104;SDS011;4095;48.942;9.104;2024-03-08T03:02:46;23.20;;;17.77;;
8104;SDS011;4095;48.942;9.104;2024-03-08T03:05:12;19.37;;;15.97;;
8104;SDS011;4095;48.942;9.104;2024-03-08T03:07:37;22.63;;;17.10;;
8104;SDS011;4095;48.942;9.104;2024-03-08T03:10:03;21.47;;;17.50;;
8104;SDS011;4095;48.942;9.104;2024-03-08T03:12:30;21.67;;;16.97;;
8104;SDS011;4095;48.942;9.104;2024-03-08T03:14:56;22.40;;;16.97;;
8104;SDS011;4095;48.942;9.104;2024-03-08T03:17:23;23.17;;;16.70;;
8104;SDS011;4095;48.942;9.104;2024-03-08T03:19:49;20.00;;;16.83;;
8104;SDS011;4095;48.942;9.104;2024-03-08T03:22:15;19.33;;;16.53;;
8104;SDS011;4095;48.942;9.104;2024-03-08T03:24:41;22.30;;;16.37;;
8104;SDS011;4095;48.942;9.104;2024-03-08T03:27:07;20.13;;;16.13;;
8104;SDS011;4095;48.942;9.104;2024-03-08T03:29:44;20.13;;;16.10;;
8104;SDS011;4095;48.942;9.104;2024-03-08T03:32:11;21.30;;;17.03;;
8104;SDS011;4095;48.942;9.104;2024-03-08T03:34:37;19.93;;;15.73;;
8104;SDS011;4095;48.942;9.104;2024-03-08T03:37:03;21.90;;;16.57;;
8104;SDS011;4095;48.942;9.104;2024-03-08T03:39:29;20.80;;;16.43;;
8104;SDS011;4095;48.942;9.104;2024-03-08T03:42:13;24.67;;;17.60;;
8104;SDS011;4095;48.942;9.104;2024-03-08T03:44:43;23.17;;;17.13;;
8104;SDS011;4095;48.942;9.104;2024-03-08T03:47:13;34.37;;;21.20;;
8104;SDS011;4095;48.942;9.104;2024-03-08T03:49:39;23.43;;;17.53;;
8104;SDS011;4095;48.942;9.104;2024-03-08T03:52:08;23.33;;;18.37;;
8104;SDS011;4095;48.942;9.104;2024-03-08T03:54:34;25.20;;;17.77;;
8104;SDS011;4095;48.942;9.104;2024-03-08T03:56:59;23.50;;;18.07;;
8104;SDS011;4095;48.942;9.104;2024-03-08T03:59:25;24.47;;;17.87;;
8104;SDS011;4095;48.942;9.104;2024-03-08T04:01:52;23.17;;;17.10;;
8104;SDS011;4095;48.942;9.104;2024-03-08T04:04:18;20.23;;;16.40;;
8104;SDS011;4095;48.942;9.104;2024-03-08T04:06:43;21.43;;;16.43;;
8104;SDS011;4095;48.942;9.104;2024-03-08T04:09:10;22.13;;;16.63;;
8104;SDS011;4095;48.942;9.104;2024-03-08T04:11:36;21.63;;;17.07;;
8104;SDS011;4095;48.942;9.104;2024-03-08T04:14:01;21.87;;;16.53;;
8104;SDS011;4095;48.942;9.104;2024-03-08T04:16:27;21.43;;;16.97;;
8104;SDS011;4095;48.942;9.104;2024-03-08T04:18:53;19.57;;;15.47;;
8104;SDS011;4095;48.942;9.104;2024-03-08T04:21:18;21.47;;;16.67;;
8104;SDS011;4095;48.942;9.104;2024-03-08T04:23:44;20.53;;;15.73;;
8104;SDS011;4095;48.942;9.104;2024-03-08T04:26:10;21.10;;;16.30;;
8104;SDS011;4095;48.942;9.104;2024-03-08T04:28:36;20.30;;;15.70;;
8104;SDS011;4095;48.942;9.104;2024-03-08T04:31:02;20.47;;;16.00;;
8104;SDS011;4095;48.942;9.104;2024-03-08T04:33:28;22.63;;;17.90;;
8104;SDS011;4095;48.942;9.104;2024-03-08T04:35:54;23.77;;;16.77;;
8104;SDS011;4095;48.942;9.104;2024-03-08T04:38:19;21.37;;;16.30;;
8104;SDS011;4095;48.942;9.104;2024-03-08T04:40:45;20.33;;;15.80;;
8104;SDS011;4095;48.942;9.104;2024-03-08T04:43:11;21.17;;;16.73;;
8104;SDS011;4095;48.942;9.104;2024-03-08T04:45:36;24.10;;;16.90;;
8104;SDS011;4095;48.942;9.104;2024-03-08T04:48:02;23.00;;;16.67;;
8104;SDS011;4095;48.942;9.104;2024-03-08T04:50:28;23.80;;;17.70;;
8104;SDS011;4095;48.942;9.104;2024-03-08T04:52:54;24.33;;;17.10;;
8104;SDS011;4095;48.942;9.104;2024-03-08T04:55:20;21.47;;;16.90;;
8104;SDS011;4095;48.942;9.104;2024-03-08T04:57:46;22.43;;;17.23;;
8104;SDS011;4095;48.942;9.104;2024-03-08T05:00:12;21.83;;;17.37;;
8104;SDS011;4095;48.942;9.104;2024-03-08T05:02:39;21.83;;;17.03;;
8104;SDS011;4095;48.942;9.104;2024-03-08T05:05:06;22.00;;;16.57;;
8104;SDS011;4095;48.942;9.104;2024-03-08T05:07:32;23.37;;;16.97;;
8104;SDS011;4095;48.942;9.104;2024-03-08T05:10:00;22.83;;;16.93;;
8104;SDS011;4095;48.942;9.104;2024-03-08T05:12:27;20.20;;;15.90;;
8104;SDS011;4095;48.942;9.104;2024-03-08T05:14:53;22.50;;;16.40;;
8104;SDS011;4095;48.942;9.104;2024-03-08T05:17:18;22.63;;;16.87;;
8104;SDS011;4095;48.942;9.104;2024-03-08T05:19:44;21.60;;;16.07;;
8104;SDS011;4095;48.942;9.104;2024-03-08T05:22:09;22.10;;;16.53;;
8104;SDS011;4095;48.942;9.104;2024-03-08T05:24:35;22.90;;;16.10;;
8104;SDS011;4095;48.942;9.104;2024-03-08T05:27:01;21.97;;;16.20;;
8104;SDS011;4095;48.942;9.104;2024-03-08T05:29:28;22.67;;;17.20;;
8104;SDS011;4095;48.942;9.104;2024-03-08T05:31:54;22.03;;;16.77;;
8104;SDS011;4095;48.942;9.104;2024-03-08T05:34:20;23.77;;;17.30;;
8104;SDS011;4095;48.942;9.104;2024-03-08T05:36:47;23.27;;;17.03;;
8104;SDS011;4095;48.942;9.104;2024-03-08T05:39:14;22.47;;;17.23;;
8104;SDS011;4095;48.942;9.104;2024-03-08T05:41:41;20.87;;;16.73;;
8104;SDS011;4095;48.942;9.104;2024-03-08T05:44:07;21.77;;;16.60;;
8104;SDS011;4095;48.942;9.104;2024-03-08T05:46:33;23.67;;;17.17;;
8104;SDS011;4095;48.942;9.104;2024-03-08T05:49:00;24.33;;;17.50;;
8104;SDS011;4095;48.942;9.104;2024-03-08T05:51:30;23.30;;;16.47;;
8104;SDS011;4095;48.942;9.104;2024-03-08T05:54:02;23.57;;;17.10;;
8104;SDS011;4095;48.942;9.104;2024-03-08T05:56:30;23.27;;;17.60;;
8104;SDS011;4095;48.942;9.104;2024-03-08T05:58:56;23.83;;;18.30;;
8104;SDS011;4095;48.942;9.104;2024-03-08T06:01:23;25.87;;;19.60;;
8104;SDS011;4095;48.942;9.104;2024-03-08T06:03:54;26.77;;;19.87;;
8104;SDS011;4095;48.942;9.104;2024-03-08T06:06:22;24.43;;;19.40;;
8104;SDS011;4095;48.942;9.104;2024-03-08T06:08:51;22.87;;;18.03;;
8104;SDS011;4095;48.942;9.104;2024-03-08T06:11:17;24.63;;;19.07;;
8104;SDS011;4095;48.942;9.104;2024-03-08T06:13:44;23.83;;;18.27;;
8104;SDS011;4095;48.942;9.104;2024-03-08T06:16:10;23.03;;;18.10;;
8104;SDS011;4095;48.942;9.104;2024-03-08T06:18:36;24.03;;;18.70;;
8104;SDS011;4095;48.942;9.104;2024-03-08T06:21:03;23.30;;;18.03;;
8104;SDS011;4095;48.942;9.104;2024-03-08T06:23:31;21.87;;;17.77;;
8104;SDS011;4095;48.942;9.104;2024-03-08T06:25:57;30.93;;;22.13;;
8104;SDS011;4095;48.942;9.104;2024-03-08T06:28:22;30.60;;;20.83;;
8104;SDS011;4095;48.942;9.104;2024-03-08T06:30:48;24.50;;;17.90;;
8104;SDS011;4095;48.942;9.104;2024-03-08T06:33:15;23.47;;;18.23;;
8104;SDS011;4095;48.942;9.104;2024-03-08T06:35:41;22.17;;;17.37;;
8104;SDS011;4095;48.942;9.104;2024-03-08T06:38:06;24.20;;;18.90;;
8104;SDS011;4095;48.942;9.104;2024-03-08T06:40:32;22.17;;;17.80;;
8104;SDS011;4095;48.942;9.104;2024-03-08T06:42:57;23.87;;;17.93;;
8104;SDS011;4095;48.942;9.104;2024-03-08T06:45:23;25.63;;;18.17;;
8104;SDS011;4095;48.942;9.104;2024-03-08T06:47:49;24.60;;;18.30;;
8104;SDS011;4095;48.942;9.104;2024-03-08T06:50:14;26.30;;;19.23;;
8104;SDS011;4095;48.942;9.104;2024-03-08T06:52:40;24.90;;;17.90;;
8104;SDS011;4095;48.942;9.104;2024-03-08T06:55:11;25.67;;;18.37;;
8104;SDS011;4095;48.942;9.104;2024-03-08T06:57:39;24.07;;;18.10;;
8104;SDS011;4095;48.942;9.104;2024-03-08T07:00:06;24.33;;;17.90;;
8104;SDS011;4095;48.942;9.104;2024-03-08T07:02:35;24.57;;;18.50;;
8104;SDS011;4095;48.942;9.104;2024-03-08T07:05:00;24.63;;;18.23;;
8104;SDS011;4095;48.942;9.104;2024-03-08T07:07:26;25.87;;;19.10;;
8104;SDS011;4095;48.942;9.104;2024-03-08T07:09:52;24.57;;;17.53;;
8104;SDS011;4095;48.942;9.104;2024-03-08T07:12:17;24.00;;;18.60;;
8104;SDS011;4095;48.942;9.104;2024-03-08T07:14:45;25.20;;;18.83;;
8104;SDS011;4095;48.942;9.104;2024-03-08T07:17:11;24.17;;;19.20;;
8104;SDS011;4095;48.942;9.104;2024-03-08T07:19:37;24.67;;;18.37;;
8104;SDS011;4095;48.942;9.104;2024-03-08T07:22:03;27.67;;;20.00;;
8104;SDS011;4095;48.942;9.104;2024-03-08T07:24:29;25.73;;;19.73;;
8104;SDS011;4095;48.942;9.104;2024-03-08T07:27:05;27.17;;;19.47;;
8104;SDS011;4095;48.942;9.104;2024-03-08T07:29:31;24.37;;;19.30;;
8104;SDS011;4095;48.942;9.104;2024-03-08T07:31:57;25.33;;;20.00;;
8104;SDS011;4095;48.942;9.104;2024-03-08T07:34:37;22.67;;;18.63;;
8104;SDS011;4095;48.942;9.104;2024-03-08T07:37:04;23.73;;;18.23;;
8104;SDS011;4095;48.942;9.104;2024-03-08T07:39:30;22.57;;;18.33;;
8104;SDS011;4095;48.942;9.104;2024-03-08T07:41:56;25.53;;;18.00;;
8104;SDS011;4095;48.942;9.104;2024-03-08T07:44:22;22.17;;;18.40;;
8104;SDS011;4095;48.942;9.104;2024-03-08T07:46:48;22.90;;;18.50;;
8104;SDS011;4095;48.942;9.104;2024-03-08T07:49:14;23.83;;;18.93;;
8104;SDS011;4095;48.942;9.104;2024-03-08T07:51:40;22.30;;;17.77;;
8104;SDS011;4095;48.942;9.104;2024-03-08T07:54:06;21.87;;;17.90;;
8104;SDS011;4095;48.942;9.104;2024-03-08T07:56:34;22.13;;;18.10;;
8104;SDS011;4095;48.942;9.104;2024-03-08T07:59:01;23.83;;;18.00;;
8104;SDS011;4095;48.942;9.104;2024-03-08T08:01:29;23.70;;;18.57;;
8104;SDS011;4095;48.942;9.104;2024-03-08T08:03:55;21.70;;;17.63;;
8104;SDS011;4095;48.942;9.104;2024-03-08T08:06:21;21.23;;;17.00;;
8104;SDS011;4095;48.942;9.104;2024-03-08T08:08:47;22.27;;;17.57;;
8104;SDS011;4095;48.942;9.104;2024-03-08T08:11:13;21.47;;;17.40;;
8104;SDS011;4095;48.942;9.104;2024-03-08T08:13:40;22.00;;;17.73;;
8104;SDS011;4095;48.942;9.104;2024-03-08T08:16:08;22.33;;;17.53;;
8104;SDS011;4095;48.942;9.104;2024-03-08T08:18:34;22.13;;;18.10;;
8104;SDS011;4095;48.942;9.104;2024-03-08T08:21:00;21.27;;;17.50;;
8104;SDS011;4095;48.942;9.104;2024-03-08T08:23:26;22.23;;;17.27;;
8104;SDS011;4095;48.942;9.104;2024-03-08T08:25:52;21.70;;;17.63;;
8104;SDS011;4095;48.942;9.104;2024-03-08T08:28:18;20.63;;;17.10;;
8104;SDS011;4095;48.942;9.104;2024-03-08T08:30:44;21.30;;;17.53;;
8104;SDS011;4095;48.942;9.104;2024-03-08T08:33:10;20.87;;;16.90;;
8104;SDS011;4095;48.942;9.104;2024-03-08T08:35:38;21.20;;;17.03;;
8104;SDS011;4095;48.942;9.104;2024-03-08T08:38:07;22.60;;;17.73;;
8104;SDS011;4095;48.942;9.104;2024-03-08T08:40:33;20.63;;;16.33;;
8104;SDS011;4095;48.942;9.104;2024-03-08T08:43:00;19.73;;;17.03;;
8104;SDS011;4095;48.942;9.104;2024-03-08T08:45:29;21.03;;;17.40;;
8104;SDS011;4095;48.942;9.104;2024-03-08T08:48:02;20.97;;;17.57;;
8104;SDS011;4095;48.942;9.104;2024-03-08T08:50:27;22.93;;;17.77;;
8104;SDS011;4095;48.942;9.104;2024-03-08T08:52:53;20.80;;;16.77;;
8104;SDS011;4095;48.942;9.104;2024-03-08T08:55:19;24.33;;;18.03;;
8104;SDS011;4095;48.942;9.104;2024-03-08T08:57:46;20.90;;;17.33;;
8104;SDS011;4095;48.942;9.104;2024-03-08T09:00:16;21.20;;;17.60;;
8104;SDS011;4095;48.942;9.104;2024-03-08T09:02:46;20.23;;;16.73;;
8104;SDS011;4095;48.942;9.104;2024-03-08T09:05:13;19.87;;;17.50;;
8104;SDS011;4095;48.942;9.104;2024-03-08T09:07:42;19.43;;;16.90;;
8104;SDS011;4095;48.942;9.104;2024-03-08T09:10:10;21.53;;;17.50;;
8104;SDS011;4095;48.942;9.104;2024-03-08T09:12:37;21.27;;;17.47;;
8104;SDS011;4095;48.942;9.104;2024-03-08T09:15:04;20.60;;;17.07;;
8104;SDS011;4095;48.942;9.104;2024-03-08T09:17:33;19.93;;;16.40;;
8104;SDS011;4095;48.942;9.104;2024-03-08T09:19:59;21.60;;;16.43;;
8104;SDS011;4095;48.942;9.104;2024-03-08T09:22:24;19.90;;;16.60;;
8104;SDS011;4095;48.942;9.104;2024-03-08T09:24:50;21.53;;;17.13;;
8104;SDS011;4095;48.942;9.104;2024-03-08T09:27:15;20.50;;;16.27;;
8104;SDS011;4095;48.942;9.104;2024-03-08T09:29:41;20.57;;;16.97;;
8104;SDS011;4095;48.942;9.104;2024-03-08T09:32:06;21.30;;;15.87;;
8104;SDS011;4095;48.942;9.104;2024-03-08T09:34:32;20.00;;;16.20;;
8104;SDS011;4095;48.942;9.104;2024-03-08T09:36:58;18.73;;;16.23;;
8104;SDS011;4095;48.942;9.104;2024-03-08T09:39:23;17.30;;;15.00;;
8104;SDS011;4095;48.942;9.104;2024-03-08T09:41:49;21.27;;;16.13;;
8104;SDS011;4095;48.942;9.104;2024-03-08T09:44:15;19.63;;;15.70;;
8104;SDS011;4095;48.942;9.104;2024-03-08T09:46:41;18.17;;;14.70;;
8104;SDS011;4095;48.942;9.104;2024-03-08T09:49:07;19.20;;;15.77;;
8104;SDS011;4095;48.942;9.104;2024-03-08T09:51:33;18.57;;;15.57;;
8104;SDS011;4095;48.942;9.104;2024-03-08T09:54:00;18.33;;;15.10;;
8104;SDS011;4095;48.942;9.104;2024-03-08T09:56:29;20.53;;;15.57;;
8104;SDS011;4095;48.942;9.104;2024-03-08T09:58:58;18.70;;;15.13;;
8104;SDS011;4095;48.942;9.104;2024-03-08T10:01:49;17.80;;;15.10;;
8104;SDS011;4095;48.942;9.104;2024-03-08T10:04:16;21.47;;;16.10;;
8104;SDS011;4095;48.942;9.104;2024-03-08T10:06:42;19.27;;;15.80;;
8104;SDS011;4095;48.942;9.104;2024-03-08T10:09:08;18.83;;;15.70;;
8104;SDS011;4095;48.942;9.104;2024-03-08T10:11:35;18.80;;;15.57;;
8104;SDS011;4095;48.942;9.104;2024-03-08T10:14:01;20.27;;;16.30;;
8104;SDS011;4095;48.942;9.104;2024-03-08T10:16:27;20.13;;;16.13;;
8104;SDS011;4095;48.942;9.104;2024-03-08T10:18:53;18.47;;;15.17;;
8104;SDS011;4095;48.942;9.104;2024-03-08T10:21:20;18.80;;;14.93;;
8104;SDS011;4095;48.942;9.104;2024-03-08T10:23:46;18.67;;;14.87;;
8104;SDS011;4095;48.942;9.104;2024-03-08T10:26:13;19.23;;;15.37;;
8104;SDS011;4095;48.942;9.104;2024-03-08T10:28:41;17.00;;;15.07;;
8104;SDS011;4095;48.942;9.104;2024-03-08T10:31:07;19.20;;;14.83;;
8104;SDS011;4095;48.942;9.104;2024-03-08T10:33:34;20.00;;;15.73;;
8104;SDS011;4095;48.942;9.104;2024-03-08T10:35:59;18.17;;;15.40;;
8104;SDS011;4095;48.942;9.104;2024-03-08T10:38:25;17.33;;;15.00;;
8104;SDS011;4095;48.942;9.104;2024-03-08T10:40:53;17.87;;;14.70;;
8104;SDS011;4095;48.942;9.104;2024-03-08T10:43:24;19.07;;;15.30;;
8104;SDS011;4095;48.942;9.104;2024-03-08T10:45:51;21.67;;;15.37;;
8104;SDS011;4095;48.942;9.104;2024-03-08T10:48:31;17.83;;;14.80;;
8104;SDS011;4095;48.942;9.104;2024-03-08T10:51:00;18.40;;;15.13;;
8104;SDS011;4095;48.942;9.104;2024-03-08T10:53:27;19.17;;;15.70;;
8104;SDS011;4095;48.942;9.104;2024-03-08T10:55:54;20.10;;;15.73;;
8104;SDS011;4095;48.942;9.104;2024-03-08T10:58:22;20.03;;;15.83;;
8104;SDS011;4095;48.942;9.104;2024-03-08T11:00:52;19.10;;;15.33;;
8104;SDS011;4095;48.942;9.104;2024-03-08T11:06:07;19.77;;;15.93;;
8104;SDS011;4095;48.942;9.104;2024-03-08T11:08:35;18.67;;;15.40;;
8104;SDS011;4095;48.942;9.104;2024-03-08T11:11:01;19.13;;;15.93;;
8104;SDS011;4095;48.942;9.104;2024-03-08T11:13:33;16.83;;;13.90;;
8104;SDS011;4095;48.942;9.104;2024-03-08T11:16:09;18.27;;;14.97;;
8104;SDS011;4095;48.942;9.104;2024-03-08T11:18:36;20.20;;;15.87;;
8104;SDS011;4095;48.942;9.104;2024-03-08T11:21:08;17.23;;;14.83;;
8104;SDS011;4095;48.942;9.104;2024-03-08T11:23:37;20.23;;;15.80;;
8104;SDS011;4095;48.942;9.104;2024-03-08T11:26:05;19.70;;;14.93;;
8104;SDS011;4095;48.942;9.104;2024-03-08T11:28:43;18.13;;;15.00;;
8104;SDS011;4095;48.942;9.104;2024-03-08T11:33:34;17.83;;;15.13;;
8104;SDS011;4095;48.942;9.104;2024-03-08T11:36:07;16.03;;;14.33;;
8104;SDS011;4095;48.942;9.104;2024-03-08T11:38:43;17.33;;;13.33;;
8104;SDS011;4095;48.942;9.104;2024-03-08T11:41:09;16.00;;;14.30;;
8104;SDS011;4095;48.942;9.104;2024-03-08T11:43:39;16.40;;;14.63;;
8104;SDS011;4095;48.942;9.104;2024-03-08T11:46:10;15.87;;;14.07;;
8104;SDS011;4095;48.942;9.104;2024-03-08T11:48:37;18.20;;;13.37;;
8104;SDS011;4095;48.942;9.104;2024-03-08T11:51:12;16.25;;;14.52;;
8104;SDS011;4095;48.942;9.104;2024-03-08T11:53:39;15.00;;;13.50;;
8104;SDS011;4095;48.942;9.104;2024-03-08T11:56:11;14.73;;;13.23;;
8104;SDS011;4095;48.942;9.104;2024-03-08T11:58:38;14.00;;;12.60;;
8104;SDS011;4095;48.942;9.104;2024-03-08T12:01:05;14.48;;;13.07;;
8104;SDS011;4095;48.942;9.104;2024-03-08T12:03:32;15.50;;;13.88;;
8104;SDS011;4095;48.942;9.104;2024-03-08T12:05:59;13.88;;;12.52;;
8104;SDS011;4095;48.942;9.104;2024-03-08T12:08:25;25.38;;;15.93;;
8104;SDS011;4095;48.942;9.104;2024-03-08T12:10:53;14.35;;;12.88;;
8104;SDS011;4095;48.942;9.104;2024-03-08T12:13:24;14.68;;;13.25;;
8104;SDS011;4095;48.942;9.104;2024-03-08T12:15:56;13.63;;;12.32;;
8104;SDS011;4095;48.942;9.104;2024-03-08T12:18:25;15.90;;;13.73;;
8104;SDS011;4095;48.942;9.104;2024-03-08T12:21:04;15.40;;;13.90;;
8104;SDS011;4095;48.942;9.104;2024-03-08T12:23:32;15.68;;;13.45;;
8104;SDS011;4095;48.942;9.104;2024-03-08T12:26:14;15.95;;;14.45;;
8104;SDS011;4095;48.942;9.104;2024-03-08T12:28:41;14.13;;;12.73;;
8104;SDS011;4095;48.942;9.104;2024-03-08T12:31:13;14.82;;;13.35;;
8104;SDS011;4095;48.942;9.104;2024-03-08T12:33:52;15.00;;;13.50;;
8104;SDS011;4095;48.942;9.104;2024-03-08T12:36:20;15.80;;;14.30;;
8104;SDS011;4095;48.942;9.104;2024-03-08T12:38:46;15.23;;;13.63;;
8104;SDS011;4095;48.942;9.104;2024-03-08T12:41:18;16.50;;;14.90;;
8104;SDS011;4095;48.942;9.104;2024-03-08T12:43:45;15.77;;;14.27;;
8104;SDS011;4095;48.942;9.104;2024-03-08T12:46:20;16.13;;;14.50;;
8104;SDS011;4095;48.942;9.104;2024-03-08T12:48:47;16.10;;;14.50;;
8104;SDS011;4095;48.942;9.104;2024-03-08T12:51:13;16.98;;;15.27;;
8104;SDS011;4095;48.942;9.104;2024-03-08T12:53:40;15.57;;;14.07;;
8104;SDS011;4095;48.942;9.104;2024-03-08T12:56:10;16.00;;;14.48;;
8104;SDS011;4095;48.942;9.104;2024-03-08T12:58:36;14.13;;;12.80;;
8104;SDS011;4095;48.942;9.104;2024-03-08T13:01:03;15.05;;;13.45;;
8104;SDS011;4095;48.942;9.104;2024-03-08T13:03:32;15.35;;;13.77;;
8104;SDS011;4095;48.942;9.104;2024-03-08T13:06:02;15.30;;;13.73;;
8104;SDS011;4095;48.942;9.104;2024-03-08T13:08:33;17.15;;;14.70;;
8104;SDS011;4095;48.942;9.104;2024-03-08T13:11:05;15.93;;;14.30;;
8104;SDS011;4095;48.942;9.104;2024-03-08T13:13:36;17.90;;;15.23;;
8104;SDS011;4095;48.942;9.104;2024-03-08T13:16:05;14.80;;;13.30;;
8104;SDS011;4095;48.942;9.104;2024-03-08T13:18:34;16.10;;;14.18;;
8104;SDS011;4095;48.942;9.104;2024-03-08T13:21:00;16.73;;;14.98;;
8104;SDS011;4095;48.942;9.104;2024-03-08T13:23:34;16.63;;;14.93;;
8104;SDS011;4095;48.942;9.104;2024-03-08T13:26:10;17.75;;;15.88;;
8104;SDS011;4095;48.942;9.104;2024-03-08T13:28:46;17.75;;;15.90;;
8104;SDS011;4095;48.942;9.104;2024-03-08T13:31:13;17.40;;;15.07;;
8104;SDS011;4095;48.942;9.104;2024-03-08T13:33:40;17.80;;;15.93;;
8104;SDS011;4095;48.942;9.104;2024-03-08T13:36:07;17.57;;;15.00;;
8104;SDS011;4095;48.942;9.104;2024-03-08T13:38:40;15.80;;;14.07;;
8104;SDS011;4095;48.942;9.104;2024-03-08T13:41:13;18.13;;;15.80;;
8104;SDS011;4095;48.942;9.104;2024-03-08T13:43:46;21.60;;;16.23;;
8104;SDS011;4095;48.942;9.104;2024-03-08T13:46:14;18.73;;;16.00;;
8104;SDS011;4095;48.942;9.104;2024-03-08T13:48:40;17.43;;;14.93;;
8104;SDS011;4095;48.942;9.104;2024-03-08T13:51:06;15.70;;;14.00;;
8104;SDS011;4095;48.942;9.104;2024-03-08T13:53:32;18.07;;;15.13;;
8104;SDS011;4095;48.942;9.104;2024-03-08T13:55:59;17.63;;;15.63;;
8104;SDS011;4095;48.942;9.104;2024-03-08T13:58:26;18.33;;;15.50;;
8104;SDS011;4095;48.942;9.104;2024-03-08T14:00:52;17.83;;;14.87;;
8104;SDS011;4095;48.942;9.104;2024-03-08T14:03:17;15.83;;;13.93;;
8104;SDS011;4095;48.942;9.104;2024-03-08T14:05:43;18.30;;;14.80;;
8104;SDS011;4095;48.942;9.104;2024-03-08T14:08:09;17.37;;;14.70;;
8104;SDS011;4095;48.942;9.104;2024-03-08T14:10:37;16.17;;;14.07;;
8104;SDS011;4095;48.942;9.104;2024-03-08T14:13:03;17.60;;;14.67;;
8104;SDS011;4095;48.942;9.104;2024-03-08T14:15:30;16.07;;;14.37;;
8104;SDS011;4095;48.942;9.104;2024-03-08T14:17:56;17.40;;;14.97;;
8104;SDS011;4095;48.942;9.104;2024-03-08T14:20:22;15.67;;;14.00;;
8104;SDS011;4095;48.942;9.104;2024-03-08T14:22:51;17.67;;;14.27;;
8104;SDS011;4095;48.942;9.104;2024-03-08T14:25:17;15.67;;;12.23;;
8104;SDS011;4095;48.942;9.104;2024-03-08T14:27:46;17.30;;;14.03;;
8104;SDS011;4095;48.942;9.104;2024-03-08T14:30:12;17.03;;;14.50;;
8104;SDS011;4095;48.942;9.104;2024-03-08T14:32:38;16.80;;;14.50;;
8104;SDS011;4095;48.942;9.104;2024-03-08T14:35:04;17.50;;;15.23;;
8104;SDS011;4095;48.942;9.104;2024-03-08T14:37:30;19.00;;;15.17;;
8104;SDS011;4095;48.942;9.104;2024-03-08T14:39:56;18.03;;;14.93;;
8104;SDS011;4095;48.942;9.104;2024-03-08T14:42:22;20.37;;;13.93;;
8104;SDS011;4095;48.942;9.104;2024-03-08T14:44:48;20.83;;;14.87;;
8104;SDS011;4095;48.942;9.104;2024-03-08T14:47:16;15.30;;;12.90;;
8104;SDS011;4095;48.942;9.104;2024-03-08T14:49:42;16.87;;;14.17;;
8104;SDS011;4095;48.942;9.104;2024-03-08T14:52:08;16.93;;;14.70;;
8104;SDS011;4095;48.942;9.104;2024-03-08T14:54:52;16.07;;;13.03;;
8104;SDS011;4095;48.942;9.104;2024-03-08T14:57:18;15.70;;;12.80;;